createdAt,value
2023-01-04T00:00:44.361Z,100300.91
2023-01-04T00:03:14.534Z,100296.81
2023-01-04T00:05:44.137Z,100295.38
2023-01-04T00:08:13.722Z,100303.53
2023-01-04T00:10:43.284Z,100301.19
2023-01-04T00:13:15.510Z,100291.19
2023-01-04T00:15:45.132Z,100290.75
2023-01-04T00:18:14.809Z,100255.38
2023-01-04T00:20:44.309Z,100266.59
2023-01-04T00:23:13.864Z,100266.22
2023-01-04T00:25:43.927Z,100253.34
2023-01-04T00:28:16.066Z,100247.97
2023-01-04T00:30:45.898Z,100231.59
2023-01-04T00:33:15.749Z,100229.38
2023-01-04T00:35:46.633Z,100229.72
2023-01-04T00:38:16.261Z,100218.66
2023-01-04T00:40:46.030Z,100211.66
2023-01-04T00:43:18.177Z,100207.59
2023-01-04T00:45:48.033Z,100197.84
2023-01-04T00:48:17.643Z,100193.53
2023-01-04T00:50:47.389Z,100183.97
2023-01-04T00:53:18.454Z,100195.16
2023-01-04T00:55:48.449Z,100183.16
2023-01-04T00:58:20.549Z,100181.97
2023-01-04T01:00:50.084Z,100189.41
2023-01-04T01:03:19.823Z,100186.00
2023-01-04T01:05:49.454Z,100185.34
2023-01-04T01:08:28.149Z,100186.56
2023-01-04T01:10:58.238Z,100177.13
2023-01-04T01:13:30.426Z,100173.63
2023-01-04T01:16:04.708Z,100162.09
2023-01-04T01:18:34.607Z,100157.13
2023-01-04T01:21:07.532Z,100158.69
2023-01-04T01:23:37.751Z,100154.13
2023-01-04T01:26:11.339Z,100152.25
2023-01-04T01:28:43.856Z,100146.84
2023-01-04T01:31:16.901Z,100146.41
2023-01-04T01:33:48.419Z,100148.88
2023-01-04T01:36:19.618Z,100144.31
2023-01-04T01:38:49.552Z,100143.34
2023-01-04T01:41:22.341Z,100127.09
2023-01-04T01:43:57.512Z,100124.19
2023-01-04T01:46:32.302Z,100112.09
2023-01-04T01:49:05.569Z,100088.75
2023-01-04T01:51:36.734Z,100082.25
2023-01-04T01:54:09.681Z,100084.88
2023-01-04T01:56:42.357Z,100097.41
2023-01-04T01:59:17.476Z,100071.25
2023-01-04T02:01:47.900Z,100059.31
2023-01-04T02:04:18.962Z,100067.63
2023-01-04T02:06:51.496Z,100059.63
2023-01-04T02:09:23.179Z,100046.84
2023-01-04T02:11:52.718Z,100051.16
2023-01-04T02:14:31.455Z,100035.44
2023-01-04T02:17:11.839Z,100049.06
2023-01-04T02:20:18.639Z,100042.78
2023-01-04T02:23:21.736Z,100041.13
2023-01-04T02:26:27.237Z,100042.88
2023-01-04T02:29:22.573Z,100049.06
2023-01-04T02:31:59.259Z,100043.69
2023-01-04T02:34:37.461Z,100050.25
2023-01-04T02:37:14.564Z,100059.16
2023-01-04T02:39:51.489Z,100051.00
2023-01-04T02:42:49.744Z,100040.78
2023-01-04T02:45:20.291Z,100038.13
2023-01-04T02:48:07.814Z,100024.19
2023-01-04T02:50:40.510Z,100020.28
2023-01-04T02:53:15.565Z,100022.13
2023-01-04T02:55:52.128Z,100007.09
2023-01-04T02:58:39.755Z,100014.06
2023-01-04T03:01:29.757Z,99977.19
2023-01-04T03:04:28.830Z,99967.16
2023-01-04T03:07:05.383Z,99965.22
2023-01-04T03:09:38.244Z,99960.28
2023-01-04T03:12:23.593Z,99947.88
2023-01-04T03:14:54.914Z,99916.16
2023-01-04T03:17:27.535Z,99924.31
2023-01-04T03:20:01.939Z,99930.38
2023-01-04T03:22:49.528Z,99918.41
2023-01-04T03:25:35.966Z,99922.38
2023-01-04T03:28:20.967Z,99920.53
2023-01-04T03:31:12.622Z,99924.00
2023-01-04T03:33:55.162Z,99904.91
2023-01-04T03:36:40.321Z,99914.03
2023-01-04T03:39:31.395Z,99903.69
2023-01-04T03:42:16.804Z,99886.75
2023-01-04T03:45:10.538Z,99883.47
2023-01-04T03:47:59.698Z,99878.97
2023-01-04T03:50:34.468Z,99870.75
2023-01-04T03:53:07.653Z,99880.28
2023-01-04T03:55:39.808Z,99868.97
2023-01-04T03:58:09.380Z,99864.47
2023-01-04T04:00:39.232Z,99861.94
2023-01-04T04:03:12.301Z,99857.34
2023-01-04T04:05:57.269Z,99838.00
2023-01-04T04:08:30.385Z,99841.53
2023-01-04T04:11:21.655Z,99825.09
2023-01-04T04:13:51.986Z,99825.06
2023-01-04T04:16:21.682Z,99823.69
2023-01-04T04:18:51.601Z,99818.81
2023-01-04T04:21:21.167Z,99806.72
2023-01-04T04:23:53.388Z,99792.41
2023-01-04T04:26:23.629Z,99795.34
2023-01-04T04:28:54.262Z,99770.63
2023-01-04T04:31:23.900Z,99749.75
2023-01-04T04:33:53.509Z,99755.31
2023-01-04T04:36:23.286Z,99756.88
2023-01-04T04:38:55.407Z,99757.56
2023-01-04T04:41:37.511Z,99743.81
2023-01-04T04:44:07.989Z,99749.88
2023-01-04T04:46:37.717Z,99750.09
2023-01-04T04:49:08.568Z,99724.03
2023-01-04T04:51:38.576Z,99713.25
2023-01-04T04:54:12.767Z,99710.63
2023-01-04T04:56:42.517Z,99698.78
2023-01-04T04:59:12.069Z,99688.72
2023-01-04T05:01:41.662Z,99701.22
2023-01-04T05:04:16.500Z,99696.06
2023-01-04T05:06:46.757Z,99692.53
2023-01-04T05:09:19.736Z,99691.78
2023-01-04T05:12:01.926Z,99694.16
2023-01-04T05:14:31.642Z,99699.88
2023-01-04T05:17:01.323Z,99703.28
2023-01-04T05:19:31.144Z,99698.22
2023-01-04T05:22:00.683Z,99693.16
2023-01-04T05:24:32.793Z,99707.22
2023-01-04T05:27:02.325Z,99704.88
2023-01-04T05:29:44.412Z,99705.94
2023-01-04T05:32:14.077Z,99699.19
2023-01-04T05:34:43.665Z,99689.47
2023-01-04T05:37:13.241Z,99663.94
2023-01-04T05:39:45.798Z,99665.91
2023-01-04T05:42:30.603Z,99647.69
2023-01-04T05:45:01.407Z,99644.34
2023-01-04T05:47:31.847Z,99636.16
2023-01-04T05:50:01.488Z,99618.69
2023-01-04T05:52:31.258Z,99624.31
2023-01-04T05:55:03.441Z,99633.81
2023-01-04T05:57:33.200Z,99610.13
2023-01-04T06:00:05.040Z,99610.50
2023-01-04T06:02:42.376Z,99623.63
2023-01-04T06:05:12.570Z,99612.72
2023-01-04T06:07:43.243Z,99608.09
2023-01-04T06:10:17.329Z,99599.69
2023-01-04T06:12:47.128Z,99599.50
2023-01-04T06:15:17.716Z,99596.25
2023-01-04T06:17:47.248Z,99581.69
2023-01-04T06:20:16.833Z,99581.44
2023-01-04T06:22:46.367Z,99587.38
2023-01-04T06:25:18.926Z,99567.09
2023-01-04T06:27:48.645Z,99567.72
2023-01-04T06:30:18.208Z,99556.22
2023-01-04T06:32:47.762Z,99544.84
2023-01-04T06:35:17.400Z,99550.19
2023-01-04T06:37:46.984Z,99530.34
2023-01-04T06:40:19.111Z,99522.16
2023-01-04T06:42:48.629Z,99531.38
2023-01-04T06:45:18.908Z,99511.56
2023-01-04T06:47:48.527Z,99499.84
2023-01-04T06:50:18.146Z,99500.06
2023-01-04T06:52:47.717Z,99487.97
2023-01-04T06:55:20.193Z,99473.53
2023-01-04T06:57:51.390Z,99481.19
2023-01-04T07:00:23.998Z,99461.25
2023-01-04T07:03:15.485Z,99459.50
2023-01-04T07:05:43.228Z,99465.53
2023-01-04T07:08:13.049Z,99467.25
2023-01-04T07:10:45.337Z,99471.94
2023-01-04T07:13:15.032Z,99468.25
2023-01-04T07:15:44.715Z,99473.69
2023-01-04T07:18:14.580Z,99469.91
2023-01-04T07:20:44.124Z,99460.56
2023-01-04T07:23:13.656Z,99443.06
2023-01-04T07:25:45.747Z,99462.88
2023-01-04T07:28:35.471Z,99469.41
2023-01-04T07:31:10.327Z,99472.50
2023-01-04T07:33:40.538Z,99482.38
2023-01-04T07:36:11.251Z,99488.16
2023-01-04T07:38:40.856Z,99482.84
2023-01-04T07:41:13.050Z,99467.19
2023-01-04T07:43:42.618Z,99437.97
2023-01-04T07:46:12.365Z,99444.41
2023-01-04T07:48:41.993Z,99454.81
2023-01-04T07:51:11.574Z,99459.47
2023-01-04T07:53:41.134Z,99444.06
2023-01-04T07:56:18.582Z,99448.09
2023-01-04T07:58:48.472Z,99472.06
2023-01-04T08:01:19.519Z,99440.78
2023-01-04T08:03:50.519Z,99399.31
2023-01-04T08:06:21.279Z,99428.28
2023-01-04T08:08:51.450Z,99418.66
2023-01-04T08:11:24.686Z,99417.84
2023-01-04T08:13:55.294Z,99417.25
2023-01-04T08:16:27.745Z,99412.63
2023-01-04T08:18:58.263Z,99413.53
2023-01-04T08:21:28.632Z,99416.38
2023-01-04T08:23:58.896Z,99422.78
2023-01-04T08:26:31.502Z,99431.03
2023-01-04T08:29:01.144Z,99419.00
2023-01-04T08:31:32.582Z,99435.19
2023-01-04T08:34:05.190Z,99387.69
2023-01-04T08:36:36.598Z,99415.63
2023-01-04T08:39:09.248Z,99438.22
2023-01-04T08:42:04.237Z,99423.09
2023-01-04T08:44:40.400Z,99430.47
2023-01-04T08:47:10.314Z,99433.09
2023-01-04T08:49:39.892Z,99427.44
2023-01-04T08:52:10.126Z,99420.97
2023-01-04T08:54:39.739Z,99410.50
2023-01-04T08:57:11.933Z,99397.25
2023-01-04T08:59:41.483Z,99404.22
2023-01-04T09:02:22.783Z,99393.56
2023-01-04T09:04:53.162Z,99426.94
2023-01-04T09:07:22.847Z,99398.50
2023-01-04T09:09:52.411Z,99399.28
2023-01-04T09:12:24.580Z,99417.59
2023-01-04T09:14:54.233Z,99384.75
2023-01-04T09:17:24.447Z,99374.06
2023-01-04T09:19:54.011Z,99396.91
2023-01-04T09:22:23.627Z,99378.22
2023-01-04T09:24:55.338Z,99393.16
2023-01-04T09:27:27.551Z,99382.84
2023-01-04T09:29:57.278Z,99366.53
2023-01-04T09:32:26.807Z,99358.25
2023-01-04T09:34:56.426Z,99400.19
2023-01-04T09:37:26.068Z,99384.72
2023-01-04T09:39:55.601Z,99393.75
2023-01-04T09:42:37.223Z,99397.34
2023-01-04T09:45:24.259Z,99377.91
2023-01-04T09:47:58.284Z,99374.53
2023-01-04T09:50:31.966Z,99377.88
2023-01-04T09:53:07.653Z,99400.13
2023-01-04T09:55:41.796Z,99349.72
2023-01-04T09:58:28.543Z,99383.22
2023-01-04T10:01:04.896Z,99357.38
2023-01-04T10:03:38.816Z,99327.34
2023-01-04T10:06:10.000Z,99320.91
2023-01-04T10:08:39.684Z,99311.28
2023-01-04T10:11:20.842Z,99292.56
2023-01-04T10:14:15.118Z,99290.66
2023-01-04T10:17:20.297Z,99294.22
2023-01-04T10:23:20.682Z,99277.53
2023-01-04T10:25:57.520Z,99283.50
2023-01-04T10:28:45.374Z,99282.47
2023-01-04T10:31:40.280Z,99292.47
2023-01-04T10:34:24.149Z,99310.28
2023-01-04T10:36:56.576Z,99300.19
2023-01-04T10:39:32.788Z,99309.19
2023-01-04T10:42:09.663Z,99309.72
2023-01-04T10:44:46.077Z,99293.03
2023-01-04T10:47:25.119Z,99276.56
2023-01-04T10:49:58.477Z,99285.25
2023-01-04T10:52:33.316Z,99280.31
2023-01-04T10:55:06.647Z,99283.31
2023-01-04T10:57:42.159Z,99281.19
2023-01-04T11:00:18.488Z,99279.25
2023-01-04T11:02:59.040Z,99276.16
2023-01-04T11:05:35.733Z,99281.09
2023-01-04T11:08:10.861Z,99271.66
2023-01-04T11:10:45.518Z,99256.97
2023-01-04T11:13:15.615Z,99255.44
2023-01-04T11:15:45.739Z,99254.63
2023-01-04T11:18:19.339Z,99250.81
2023-01-04T11:20:49.119Z,99254.63
2023-01-04T11:23:20.504Z,99243.25
2023-01-04T11:25:56.152Z,99212.94
2023-01-04T11:28:30.944Z,99225.75
2023-01-04T11:31:08.499Z,99224.13
2023-01-04T11:33:59.671Z,99214.09
2023-01-04T11:36:38.549Z,99233.50
2023-01-04T11:39:21.683Z,99238.09
2023-01-04T11:42:02.958Z,99248.72
2023-01-04T11:44:34.738Z,99237.28
2023-01-04T11:47:11.948Z,99215.44
2023-01-04T11:49:44.081Z,99192.63
2023-01-04T11:52:31.898Z,99174.97
2023-01-04T11:55:19.394Z,99178.22
2023-01-04T11:57:48.925Z,99175.00
2023-01-04T12:00:19.830Z,99165.25
2023-01-04T12:03:04.692Z,99154.00
2023-01-04T12:05:36.919Z,99153.22
2023-01-04T12:08:06.805Z,99131.00
2023-01-04T12:10:36.391Z,99143.88
2023-01-04T12:13:05.972Z,99114.84
2023-01-04T12:15:42.814Z,99111.59
2023-01-04T12:18:22.024Z,99108.31
2023-01-04T12:20:54.335Z,99118.16
2023-01-04T12:23:23.933Z,99100.09
2023-01-04T12:25:55.541Z,99109.41
2023-01-04T12:28:32.763Z,99120.38
2023-01-04T12:31:33.815Z,99110.81
2023-01-04T12:34:34.624Z,99112.44
2023-01-04T12:37:08.198Z,99089.44
2023-01-04T12:39:44.391Z,99101.22
2023-01-04T12:42:19.294Z,99114.91
2023-01-04T12:45:24.807Z,99081.22
2023-01-04T12:48:09.799Z,99074.34
2023-01-04T12:51:33.233Z,99092.72
2023-01-04T12:54:07.769Z,99069.94
2023-01-04T12:57:07.917Z,99069.91
2023-01-04T12:59:39.568Z,99047.41
2023-01-04T13:02:22.441Z,99065.25
2023-01-04T13:05:09.700Z,99059.50
2023-01-04T13:07:46.659Z,99069.88
2023-01-04T13:10:34.160Z,99070.72
2023-01-04T13:13:28.518Z,99084.66
2023-01-04T13:16:19.982Z,99059.16
2023-01-04T13:18:51.695Z,99047.41
2023-01-04T13:21:30.096Z,99060.88
2023-01-04T13:24:02.994Z,99068.81
2023-01-04T13:26:38.993Z,99062.25
2023-01-04T13:29:10.932Z,99052.69
2023-01-04T13:31:57.164Z,99053.81
2023-01-04T13:34:30.392Z,99056.78
2023-01-04T13:37:08.966Z,99065.00
2023-01-04T13:39:39.502Z,99061.97
2023-01-04T13:42:25.910Z,99063.34
2023-01-04T13:45:18.970Z,99063.34
2023-01-04T13:47:51.972Z,99051.84
2023-01-04T13:50:30.868Z,99063.34
2023-01-04T13:53:06.812Z,99055.41
2023-01-04T13:55:38.875Z,99053.75
2023-01-04T13:58:20.640Z,99056.72
2023-01-04T14:00:54.389Z,99038.66
2023-01-04T14:03:29.831Z,99040.59
2023-01-04T14:06:13.746Z,99045.25
2023-01-04T14:08:48.581Z,99045.47
2023-01-04T14:11:42.597Z,99036.44
2023-01-04T14:14:25.691Z,99028.53
2023-01-04T14:17:11.538Z,99035.94
2023-01-04T14:19:46.444Z,99028.22
2023-01-04T14:22:42.968Z,99020.81
2023-01-04T14:28:49.789Z,99035.94
2023-01-04T14:31:30.333Z,99035.41
2023-01-04T14:34:00.421Z,99029.94
2023-01-04T14:36:32.622Z,99030.50
2023-01-04T14:39:13.849Z,99049.44
2023-01-04T14:41:46.049Z,99054.91
2023-01-04T14:44:17.794Z,99035.47
2023-01-04T14:46:52.588Z,99044.19
2023-01-04T14:49:22.934Z,99022.28
2023-01-04T14:51:55.038Z,99025.31
2023-01-04T14:54:26.262Z,99014.06
2023-01-04T14:56:56.567Z,98998.75
2023-01-04T14:59:27.219Z,99001.50
2023-01-04T15:02:00.582Z,98988.34
2023-01-04T15:04:30.317Z,98996.53
2023-01-04T15:07:01.650Z,99010.50
2023-01-04T15:09:31.954Z,98992.72
2023-01-04T15:12:01.649Z,98999.03
2023-01-04T15:14:31.191Z,98996.53
2023-01-04T15:17:03.360Z,98995.41
2023-01-04T15:19:37.725Z,98987.75
2023-01-04T15:22:07.975Z,98987.75
2023-01-04T15:24:37.570Z,98986.16
2023-01-04T15:27:07.145Z,98994.88
2023-01-04T15:29:37.349Z,98981.19
2023-01-04T15:32:10.046Z,98991.03
2023-01-04T15:34:46.458Z,98994.06
2023-01-04T15:37:23.431Z,98991.66
2023-01-04T15:39:59.942Z,98969.13
2023-01-04T15:42:44.237Z,98993.25
2023-01-04T15:45:13.956Z,98993.75
2023-01-04T15:47:46.177Z,98986.13
2023-01-04T15:50:15.742Z,98996.59
2023-01-04T15:52:45.437Z,98997.66
2023-01-04T15:55:15.773Z,98994.38
2023-01-04T15:57:45.706Z,98977.91
2023-01-04T16:00:17.035Z,98973.28
2023-01-04T16:02:49.460Z,98986.44
2023-01-04T16:05:20.846Z,98993.31
2023-01-04T16:07:50.925Z,98988.94
2023-01-04T16:10:20.749Z,98991.16
2023-01-04T16:12:56.810Z,98980.75
2023-01-04T16:15:26.935Z,98979.09
2023-01-04T16:17:59.564Z,98976.38
2023-01-04T16:20:29.120Z,98979.13
2023-01-04T16:22:58.679Z,98974.75
2023-01-04T16:25:28.362Z,98976.94
2023-01-04T16:27:57.952Z,98986.22
2023-01-04T16:30:29.813Z,98980.22
2023-01-04T16:33:02.314Z,98975.84
2023-01-04T16:35:31.865Z,98981.31
2023-01-04T16:38:02.124Z,98978.59
2023-01-04T16:40:31.684Z,98986.28
2023-01-04T16:43:01.294Z,98980.50
2023-01-04T16:45:30.836Z,98981.63
2023-01-04T16:48:02.994Z,98976.97
2023-01-04T16:50:32.619Z,98987.38
2023-01-04T16:53:02.186Z,98978.06
2023-01-04T16:55:31.712Z,98985.16
2023-01-04T16:58:01.231Z,98989.00
2023-01-04T17:00:30.908Z,98978.59
2023-01-04T17:03:03.230Z,98983.53
2023-01-04T17:05:32.799Z,98972.03
2023-01-04T17:08:02.353Z,98969.31
2023-01-04T17:10:31.964Z,98968.22
2023-01-04T17:13:01.928Z,98965.44
2023-01-04T17:15:43.030Z,98957.78
2023-01-04T17:18:20.872Z,98940.25
2023-01-04T17:21:11.044Z,98946.81
2023-01-04T17:23:47.349Z,98936.94
2023-01-04T17:26:19.454Z,98938.03
2023-01-04T17:28:49.115Z,98937.50
2023-01-04T17:31:21.475Z,98941.28
2023-01-04T17:33:54.595Z,98945.94
2023-01-04T17:36:25.215Z,98944.59
2023-01-04T17:38:55.240Z,98935.28
2023-01-04T17:41:26.410Z,98949.25
2023-01-04T17:44:00.295Z,98943.19
2023-01-04T17:46:31.987Z,98932.78
2023-01-04T17:49:24.092Z,98929.22
2023-01-04T17:51:57.380Z,98927.56
2023-01-04T17:54:27.258Z,98933.88
2023-01-04T17:56:56.951Z,98944.03
2023-01-04T17:59:26.563Z,98954.97
2023-01-04T18:01:56.214Z,98959.94
2023-01-04T18:04:28.687Z,98962.16
2023-01-04T18:06:58.286Z,98981.03
2023-01-04T18:09:27.838Z,98980.22
2023-01-04T18:11:57.432Z,98974.22
2023-01-04T18:14:27.747Z,98967.13
2023-01-04T18:17:00.360Z,98962.19
2023-01-04T18:19:33.388Z,98949.31
2023-01-04T18:22:03.217Z,98945.44
2023-01-04T18:24:36.840Z,98927.63
2023-01-04T18:27:24.993Z,98921.59
2023-01-04T18:29:57.184Z,98922.13
2023-01-04T18:32:28.332Z,98914.50
2023-01-04T18:35:04.509Z,98896.41
2023-01-04T18:37:34.292Z,98890.94
2023-01-04T18:40:04.008Z,98900.78
2023-01-04T18:42:34.415Z,98891.78
2023-01-04T18:45:04.189Z,98897.78
2023-01-04T18:47:33.722Z,98899.41
2023-01-04T18:50:05.839Z,98907.34
2023-01-04T18:52:35.532Z,98898.56
2023-01-04T18:55:06.104Z,98883.19
2023-01-04T18:57:36.736Z,98890.31
2023-01-04T19:00:07.418Z,98882.06
2023-01-04T19:02:37.142Z,98889.13
2023-01-04T19:05:10.486Z,98888.00
2023-01-04T19:07:41.571Z,98887.69
2023-01-04T19:10:11.943Z,98884.59
2023-01-04T19:12:42.815Z,98883.50
2023-01-04T19:15:13.588Z,98877.25
2023-01-04T19:17:43.146Z,98872.00
2023-01-04T19:20:15.704Z,98868.75
2023-01-04T19:22:45.253Z,98874.75
2023-01-04T19:25:14.789Z,98869.56
2023-01-04T19:27:44.368Z,98888.44
2023-01-04T19:30:15.603Z,98887.63
2023-01-04T19:32:47.755Z,98895.13
2023-01-04T19:35:19.945Z,98906.72
2023-01-04T19:37:49.501Z,98933.63
2023-01-04T19:40:19.374Z,98927.34
2023-01-04T19:42:49.156Z,98934.22
2023-01-04T19:45:19.146Z,98942.19
2023-01-04T19:47:52.144Z,98955.59
2023-01-04T19:50:24.426Z,98952.31
2023-01-04T19:52:53.968Z,98954.53
2023-01-04T19:55:24.548Z,98964.63
2023-01-04T19:57:54.183Z,98965.47
2023-01-04T20:00:24.033Z,98976.16
2023-01-04T20:02:53.730Z,98969.28
2023-01-04T20:05:25.984Z,98969.56
2023-01-04T20:07:55.611Z,98970.13
2023-01-04T20:10:25.245Z,98963.28
2023-01-04T20:12:54.804Z,98962.19
2023-01-04T20:15:24.441Z,98962.75
2023-01-04T20:17:54.009Z,98950.13
2023-01-04T20:20:26.352Z,98957.81
2023-01-04T20:22:56.020Z,98958.91
2023-01-04T20:25:25.641Z,98956.16
2023-01-04T20:27:55.236Z,98962.75
2023-01-04T20:30:24.957Z,98962.19
2023-01-04T20:32:54.529Z,98976.97
2023-01-04T20:35:27.175Z,98987.63
2023-01-04T20:37:56.841Z,98979.16
2023-01-04T20:40:27.285Z,98977.25
2023-01-04T20:43:09.823Z,98963.28
2023-01-04T20:45:44.158Z,98953.44
2023-01-04T20:48:14.509Z,98952.63
2023-01-04T20:50:49.220Z,98903.56
2023-01-04T20:53:18.810Z,98925.16
2023-01-04T20:55:48.624Z,98917.25
2023-01-04T20:58:19.187Z,98920.25
2023-01-04T21:00:49.162Z,98923.53
2023-01-04T21:03:19.033Z,98910.13
2023-01-04T21:05:51.394Z,98912.88
2023-01-04T21:08:21.027Z,98909.81
2023-01-04T21:10:50.656Z,98898.56
2023-01-04T21:13:20.181Z,98882.63
2023-01-04T21:15:49.984Z,98890.84
2023-01-04T21:18:19.995Z,98871.47
2023-01-04T21:20:52.724Z,98879.91
2023-01-04T21:23:24.216Z,98888.41
2023-01-04T21:25:53.843Z,98889.22
2023-01-04T21:28:24.491Z,98878.25
2023-01-04T21:30:54.071Z,98892.50
2023-01-04T21:33:24.983Z,98903.72
2023-01-04T21:35:57.128Z,98895.19
2023-01-04T21:38:26.640Z,98891.91
2023-01-04T21:40:56.153Z,98883.69
2023-01-04T21:43:25.686Z,98889.97
2023-01-04T21:45:55.194Z,98881.47
2023-01-04T21:48:24.792Z,98887.53
2023-01-04T21:50:57.010Z,98883.41
2023-01-04T21:53:26.521Z,98885.88
2023-01-04T21:56:00.791Z,98877.59
2023-01-04T21:58:31.357Z,98894.63
2023-01-04T22:01:01.055Z,98897.09
2023-01-04T22:03:30.574Z,98885.63
2023-01-04T22:06:06.833Z,98890.31
2023-01-04T22:08:37.158Z,98889.19
2023-01-04T22:11:07.876Z,98894.16
2023-01-04T22:13:37.402Z,98890.03
2023-01-04T22:16:11.487Z,98900.78
2023-01-04T22:18:41.216Z,98920.44
2023-01-04T22:21:15.306Z,98911.97
2023-01-04T22:23:45.095Z,98903.22
2023-01-04T22:26:14.658Z,98914.78
2023-01-04T22:28:44.374Z,98909.56
2023-01-04T22:31:15.722Z,98921.06
2023-01-04T22:33:45.688Z,98923.00
2023-01-04T22:36:22.898Z,98912.31
2023-01-04T22:38:53.497Z,98926.56
2023-01-04T22:41:24.925Z,98919.47
2023-01-04T22:43:59.101Z,98928.47
2023-01-04T22:46:30.303Z,98930.41
2023-01-04T22:49:00.431Z,98932.59
2023-01-04T22:51:33.764Z,98941.91
2023-01-04T22:54:05.810Z,98909.84
2023-01-04T22:56:35.536Z,98920.53
2023-01-04T22:59:05.127Z,98932.06
2023-01-04T23:01:35.959Z,98937.53
2023-01-04T23:04:05.942Z,98935.91
2023-01-04T23:06:38.112Z,98946.53
2023-01-04T23:09:10.378Z,98927.91
2023-01-04T23:11:41.111Z,98923.00
2023-01-04T23:14:14.901Z,98931.47
2023-01-04T23:16:44.864Z,98926.00
2023-01-04T23:19:15.883Z,98925.72
2023-01-04T23:21:48.041Z,98930.41
2023-01-04T23:24:18.481Z,98930.41
2023-01-04T23:26:48.009Z,98930.91
2023-01-04T23:29:17.538Z,98925.44
2023-01-04T23:31:47.158Z,98931.47
2023-01-04T23:34:16.717Z,98915.59
2023-01-04T23:36:48.929Z,98924.34
2023-01-04T23:39:19.049Z,98913.94
2023-01-04T23:41:48.615Z,98919.38
2023-01-04T23:46:54.343Z,98905.69
2023-01-04T23:49:24.629Z,98906.25
2023-01-04T23:51:59.471Z,98906.25
2023-01-04T23:54:29.881Z,98910.94
2023-01-04T23:57:00.293Z,98909.81
2023-01-04T23:59:30.014Z,98916.94
